createdAt,value
2022-11-15T00:01:30.457Z,84.50
2022-11-15T00:04:21.977Z,84.37
2022-11-15T00:07:33.167Z,84.77
2022-11-15T00:10:23.763Z,84.73
2022-11-15T00:13:15.361Z,84.53
2022-11-15T00:16:09.928Z,84.56
2022-11-15T00:19:03.216Z,84.40
2022-11-15T00:21:54.323Z,84.72
2022-11-15T00:24:45.189Z,84.92
2022-11-15T00:27:36.445Z,84.80
2022-11-15T00:30:27.286Z,84.91
2022-11-15T00:33:18.206Z,84.88
2022-11-15T00:36:11.792Z,85.14
2022-11-15T00:39:03.251Z,85.27
2022-11-15T00:41:53.855Z,85.33
2022-11-15T00:44:44.756Z,85.40
2022-11-15T00:47:37.708Z,85.48
2022-11-15T00:50:28.966Z,85.36
2022-11-15T00:53:20.342Z,85.43
2022-11-15T00:56:11.411Z,85.62
2022-11-15T00:59:02.409Z,85.64
2022-11-15T01:01:53.359Z,85.51
2022-11-15T01:04:44.378Z,85.72
2022-11-15T01:07:35.668Z,85.31
2022-11-15T01:10:27.022Z,85.50
2022-11-15T01:13:17.732Z,85.55
2022-11-15T01:16:14.061Z,85.55
2022-11-15T01:19:05.153Z,85.50
2022-11-15T01:22:05.342Z,85.43
2022-11-15T01:25:00.148Z,85.55
2022-11-15T01:27:50.984Z,85.54
2022-11-15T01:30:43.840Z,85.53
2022-11-15T01:33:36.479Z,85.63
2022-11-15T01:36:27.887Z,85.62
2022-11-15T01:39:19.097Z,85.65
2022-11-15T01:42:14.074Z,85.85
2022-11-15T01:45:05.581Z,85.98
2022-11-15T01:47:58.297Z,85.84
2022-11-15T01:50:50.756Z,85.78
2022-11-15T01:53:43.994Z,86.03
2022-11-15T01:56:40.081Z,86.00
2022-11-15T01:59:32.191Z,85.99
2022-11-15T02:02:24.154Z,86.03
2022-11-15T02:05:15.322Z,85.97
2022-11-15T02:08:06.889Z,86.14
2022-11-15T02:10:59.947Z,86.13
2022-11-15T02:13:51.207Z,86.14
2022-11-15T02:16:51.202Z,86.14
2022-11-15T02:20:08.761Z,86.20
2022-11-15T02:23:18.078Z,86.21
2022-11-15T02:26:32.022Z,86.23
2022-11-15T02:29:37.377Z,86.45
2022-11-15T02:32:39.175Z,86.44
2022-11-15T02:35:39.629Z,86.86
2022-11-15T02:38:39.694Z,87.01
2022-11-15T02:41:41.524Z,86.67
2022-11-15T02:44:39.575Z,86.83
2022-11-15T02:47:33.158Z,86.88
2022-11-15T02:50:27.598Z,87.15
2022-11-15T02:53:19.399Z,87.05
2022-11-15T02:56:14.047Z,86.86
2022-11-15T02:59:43.925Z,86.91
2022-11-15T03:02:50.207Z,86.89
2022-11-15T03:05:53.779Z,86.74
2022-11-15T03:08:59.154Z,87.23
2022-11-15T03:11:56.353Z,87.36
2022-11-15T03:15:17.681Z,87.18
2022-11-15T03:18:18.905Z,87.25
2022-11-15T03:21:15.519Z,87.15
2022-11-15T03:24:08.748Z,87.48
2022-11-15T03:27:01.474Z,87.31
2022-11-15T03:30:20.960Z,87.29
2022-11-15T03:33:15.530Z,87.03
2022-11-15T03:36:07.219Z,87.00
2022-11-15T03:39:03.694Z,87.39
2022-11-15T03:42:07.321Z,87.51
2022-11-15T03:45:06.093Z,87.48
2022-11-15T03:48:01.525Z,87.46
2022-11-15T03:50:53.008Z,87.33
2022-11-15T03:53:44.741Z,87.21
2022-11-15T03:56:36.122Z,87.40
2022-11-15T03:59:26.961Z,87.26
2022-11-15T04:02:18.674Z,87.45
2022-11-15T04:05:10.216Z,87.60
2022-11-15T04:08:00.966Z,87.47
2022-11-15T04:10:54.778Z,87.54
2022-11-15T04:13:46.570Z,87.53
2022-11-15T04:16:43.590Z,87.44
2022-11-15T04:19:55.939Z,87.28
2022-11-15T04:23:04.686Z,87.08
2022-11-15T04:25:57.829Z,87.53
2022-11-15T04:29:02.794Z,87.17
2022-11-15T04:31:54.026Z,87.07
2022-11-15T04:34:45.031Z,87.30
2022-11-15T04:37:36.201Z,86.96
2022-11-15T04:40:29.937Z,86.89
2022-11-15T04:43:22.849Z,87.06
2022-11-15T04:46:13.943Z,87.44
2022-11-15T04:49:04.524Z,87.00
2022-11-15T04:51:55.377Z,87.33
2022-11-15T04:54:46.411Z,87.18
2022-11-15T04:57:37.374Z,87.35
2022-11-15T05:00:28.780Z,87.51
2022-11-15T05:03:37.487Z,87.38
2022-11-15T05:06:28.278Z,87.52
2022-11-15T05:09:20.152Z,87.54
2022-11-15T05:12:13.577Z,87.52
2022-11-15T05:15:05.994Z,87.38
2022-11-15T05:18:01.622Z,87.55
2022-11-15T05:20:52.519Z,87.35
2022-11-15T05:23:43.189Z,87.41
2022-11-15T05:26:34.387Z,87.42
2022-11-15T05:29:25.269Z,87.43
2022-11-15T05:32:16.375Z,87.35
2022-11-15T05:35:14.655Z,87.18
2022-11-15T05:38:09.560Z,87.20
2022-11-15T05:41:01.806Z,87.32
2022-11-15T05:44:23.563Z,87.17
2022-11-15T05:47:29.963Z,87.00
2022-11-15T05:50:22.390Z,86.99
2022-11-15T05:53:16.762Z,86.93
2022-11-15T05:56:08.867Z,87.09
2022-11-15T05:59:01.114Z,87.03
2022-11-15T06:01:54.792Z,86.69
2022-11-15T06:04:45.752Z,86.88
2022-11-15T06:07:37.736Z,86.66
2022-11-15T06:10:29.992Z,86.72
2022-11-15T06:13:21.152Z,86.69
2022-11-15T06:16:12.490Z,86.65
2022-11-15T06:19:06.647Z,86.56
2022-11-15T06:21:57.825Z,86.64
2022-11-15T06:24:49.134Z,86.65
2022-11-15T06:27:42.496Z,86.56
2022-11-15T06:30:33.447Z,86.63
2022-11-15T06:33:24.737Z,86.55
2022-11-15T06:36:18.241Z,86.64
2022-11-15T06:39:11.992Z,86.62
2022-11-15T06:42:02.634Z,86.73
2022-11-15T06:44:55.673Z,86.75
2022-11-15T06:47:49.680Z,86.74
2022-11-15T06:50:41.027Z,86.83
2022-11-15T06:53:35.482Z,86.70
2022-11-15T06:56:26.388Z,86.74
2022-11-15T06:59:17.344Z,86.59
2022-11-15T07:02:08.126Z,86.87
2022-11-15T07:04:59.222Z,86.64
2022-11-15T07:07:57.239Z,86.71
2022-11-15T07:10:48.156Z,87.08
2022-11-15T07:13:40.029Z,87.01
2022-11-15T07:16:30.768Z,87.07
2022-11-15T07:19:21.739Z,86.74
2022-11-15T07:22:12.348Z,86.96
2022-11-15T07:25:03.040Z,86.90
2022-11-15T07:27:59.730Z,86.95
2022-11-15T07:30:50.606Z,86.47
2022-11-15T07:33:41.271Z,86.47
2022-11-15T07:36:32.377Z,86.65
2022-11-15T07:39:23.363Z,86.54
2022-11-15T07:42:32.014Z,86.95
2022-11-15T07:45:23.305Z,86.62
2022-11-15T07:48:17.964Z,86.69
2022-11-15T07:51:13.874Z,86.73
2022-11-15T07:54:05.599Z,86.57
2022-11-15T07:56:57.888Z,86.63
2022-11-15T07:59:51.423Z,86.60
2022-11-15T08:02:42.932Z,86.62
2022-11-15T08:05:34.027Z,86.37
2022-11-15T08:08:25.060Z,86.49
2022-11-15T08:11:15.969Z,86.23
2022-11-15T08:14:46.325Z,86.30
2022-11-15T08:17:37.412Z,86.42
2022-11-15T08:20:31.143Z,86.49
2022-11-15T08:23:21.820Z,86.03
2022-11-15T08:26:13.410Z,86.48
2022-11-15T08:29:04.383Z,86.51
2022-11-15T08:31:58.514Z,86.82
2022-11-15T08:35:18.474Z,86.81
2022-11-15T08:38:16.426Z,86.47
2022-11-15T08:41:08.202Z,86.12
2022-11-15T08:43:59.232Z,86.12
2022-11-15T08:46:50.649Z,86.06
2022-11-15T08:49:43.773Z,86.23
2022-11-15T08:52:34.692Z,86.42
2022-11-15T08:55:25.855Z,86.22
2022-11-15T08:58:16.565Z,86.25
2022-11-15T09:01:08.146Z,85.91
2022-11-15T09:03:59.539Z,86.43
2022-11-15T09:06:50.517Z,85.70
2022-11-15T09:09:46.540Z,85.66
2022-11-15T09:12:38.156Z,85.73
2022-11-15T09:15:28.998Z,85.65
2022-11-15T09:18:22.390Z,86.02
2022-11-15T09:21:13.822Z,85.93
2022-11-15T09:24:05.332Z,85.99
2022-11-15T09:26:56.133Z,86.03
2022-11-15T09:29:49.962Z,86.07
2022-11-15T09:32:40.702Z,86.15
2022-11-15T09:35:31.504Z,85.90
2022-11-15T09:38:22.577Z,85.79
2022-11-15T09:41:40.198Z,86.03
2022-11-15T09:44:47.763Z,86.13
2022-11-15T09:48:11.743Z,86.20
2022-11-15T09:51:14.092Z,86.06
2022-11-15T09:56:47.392Z,86.01
2022-11-15T09:59:40.590Z,85.93
2022-11-15T10:02:26.033Z,85.90
2022-11-15T10:05:00.060Z,85.50
2022-11-15T10:07:42.798Z,85.46
2022-11-15T10:10:24.946Z,85.76
2022-11-15T10:12:57.573Z,85.90
2022-11-15T10:15:30.025Z,85.71
2022-11-15T10:18:23.445Z,85.62
2022-11-15T10:21:01.290Z,85.67
2022-11-15T10:23:34.286Z,85.80
2022-11-15T10:26:13.637Z,85.76
2022-11-15T10:28:46.330Z,85.74
2022-11-15T10:31:27.521Z,86.00
2022-11-15T10:34:12.643Z,85.90
2022-11-15T10:36:56.121Z,86.12
2022-11-15T10:39:28.928Z,85.90
2022-11-15T10:42:18.015Z,85.92
2022-11-15T10:44:50.438Z,85.76
2022-11-15T10:47:38.826Z,85.40
2022-11-15T10:50:33.165Z,85.91
2022-11-15T10:53:06.430Z,86.05
2022-11-15T10:55:39.398Z,85.82
2022-11-15T10:58:29.414Z,85.63
2022-11-15T11:01:13.174Z,85.66
2022-11-15T11:03:47.277Z,86.01
2022-11-15T11:06:23.624Z,85.90
2022-11-15T11:09:01.040Z,85.67
2022-11-15T11:11:52.034Z,85.55
2022-11-15T11:14:30.599Z,85.33
2022-11-15T11:17:11.439Z,85.28
2022-11-15T11:20:02.846Z,85.54
2022-11-15T11:22:47.032Z,85.90
2022-11-15T11:25:30.574Z,85.94
2022-11-15T11:28:19.716Z,85.57
2022-11-15T11:31:04.812Z,85.58
2022-11-15T11:33:44.223Z,85.35
2022-11-15T11:36:28.876Z,84.85
2022-11-15T11:39:21.461Z,85.31
2022-11-15T11:42:14.835Z,85.40
2022-11-15T11:45:01.292Z,85.49
2022-11-15T11:47:40.137Z,85.34
2022-11-15T11:50:20.827Z,85.32
2022-11-15T11:53:04.316Z,85.05
2022-11-15T11:55:40.174Z,85.03
2022-11-15T11:58:20.836Z,85.44
2022-11-15T12:00:57.729Z,85.24
2022-11-15T12:03:40.256Z,85.15
2022-11-15T12:06:26.935Z,84.94
2022-11-15T12:09:03.374Z,85.07
2022-11-15T12:11:44.204Z,85.00
2022-11-15T12:14:30.330Z,84.77
2022-11-15T12:17:05.366Z,85.14
2022-11-15T12:19:40.858Z,85.45
2022-11-15T12:22:22.227Z,85.41
2022-11-15T12:24:59.713Z,85.08
2022-11-15T12:27:39.109Z,85.27
2022-11-15T12:30:17.307Z,85.02
2022-11-15T12:32:57.949Z,85.19
2022-11-15T12:35:38.298Z,85.27
2022-11-15T12:38:36.498Z,85.29
2022-11-15T12:41:27.212Z,85.23
2022-11-15T12:44:00.275Z,85.68
2022-11-15T12:47:04.567Z,85.48
2022-11-15T12:49:50.320Z,85.47
2022-11-15T12:52:23.393Z,85.54
2022-11-15T12:55:04.185Z,85.29
2022-11-15T12:57:46.263Z,85.36
2022-11-15T13:00:48.131Z,85.34
2022-11-15T13:03:37.170Z,85.39
2022-11-15T13:06:44.950Z,85.39
2022-11-15T13:10:00.305Z,85.53
2022-11-15T13:12:53.184Z,85.70
2022-11-15T13:15:58.975Z,85.40
2022-11-15T13:18:45.077Z,85.59
2022-11-15T13:21:44.155Z,85.51
2022-11-15T13:24:21.161Z,85.51
2022-11-15T13:26:53.309Z,85.62
2022-11-15T13:29:25.590Z,85.47
2022-11-15T13:31:57.938Z,85.60
2022-11-15T13:37:36.768Z,85.60
2022-11-15T13:40:25.993Z,85.44
2022-11-15T13:42:58.767Z,85.23
2022-11-15T13:45:32.349Z,85.15
2022-11-15T13:48:08.137Z,85.09
2022-11-15T13:50:42.196Z,84.85
2022-11-15T13:53:15.653Z,84.39
2022-11-15T13:55:47.759Z,84.58
2022-11-15T13:58:24.131Z,84.48
2022-11-15T14:01:07.300Z,85.06
2022-11-15T14:03:49.574Z,85.31
2022-11-15T14:06:24.582Z,85.55
2022-11-15T14:09:21.867Z,85.43
2022-11-15T14:11:56.222Z,85.05
2022-11-15T14:14:30.491Z,85.12
2022-11-15T14:17:03.511Z,85.11
2022-11-15T14:19:42.008Z,85.33
2022-11-15T14:22:22.125Z,85.66
2022-11-15T14:25:15.188Z,85.91
2022-11-15T14:28:08.035Z,86.15
2022-11-15T14:30:40.922Z,86.07
2022-11-15T14:33:33.654Z,86.25
2022-11-15T14:36:13.038Z,86.09
2022-11-15T14:38:46.299Z,86.13
2022-11-15T14:41:27.404Z,86.39
2022-11-15T14:43:59.711Z,86.23
2022-11-15T14:46:32.068Z,86.04
2022-11-15T14:49:04.313Z,85.90
2022-11-15T14:51:36.529Z,86.27
2022-11-15T14:54:10.443Z,86.00
2022-11-15T14:56:43.864Z,85.76
2022-11-15T14:59:16.231Z,85.55
2022-11-15T15:01:48.553Z,85.87
2022-11-15T15:04:21.995Z,85.80
2022-11-15T15:06:56.655Z,85.58
2022-11-15T15:09:28.841Z,85.71
2022-11-15T15:12:05.910Z,85.85
2022-11-15T15:14:38.761Z,85.97
2022-11-15T15:17:11.219Z,86.09
2022-11-15T15:19:43.545Z,85.88
2022-11-15T15:22:19.927Z,85.60
2022-11-15T15:24:52.141Z,85.68
2022-11-15T15:27:24.382Z,85.86
2022-11-15T15:29:56.476Z,85.74
2022-11-15T15:32:28.738Z,85.90
2022-11-15T15:35:01.135Z,85.96
2022-11-15T15:37:35.032Z,85.91
2022-11-15T15:40:14.252Z,85.93
2022-11-15T15:42:46.569Z,85.97
2022-11-15T15:45:19.932Z,85.97
2022-11-15T15:47:53.201Z,85.69
2022-11-15T15:50:27.605Z,85.45
2022-11-15T15:53:02.899Z,85.53
2022-11-15T15:55:35.931Z,85.38
2022-11-15T15:58:09.261Z,85.72
2022-11-15T16:00:41.893Z,85.99
2022-11-15T16:03:14.091Z,85.84
2022-11-15T16:05:46.520Z,85.81
2022-11-15T16:08:23.577Z,86.06
2022-11-15T16:10:55.738Z,85.91
2022-11-15T16:13:29.901Z,85.89
2022-11-15T16:16:02.366Z,85.89
2022-11-15T16:18:35.677Z,85.66
2022-11-15T16:21:09.839Z,85.77
2022-11-15T16:23:44.516Z,85.61
2022-11-15T16:26:23.395Z,85.64
2022-11-15T16:28:56.006Z,85.41
2022-11-15T16:31:28.352Z,85.64
2022-11-15T16:34:00.580Z,85.59
2022-11-15T16:36:36.594Z,85.79
2022-11-15T16:39:10.789Z,85.79
2022-11-15T16:41:44.248Z,85.60
2022-11-15T16:44:16.752Z,85.45
2022-11-15T16:46:52.055Z,85.56
2022-11-15T16:49:24.805Z,85.52
2022-11-15T16:51:56.977Z,85.64
2022-11-15T16:54:29.117Z,85.64
2022-11-15T16:57:01.317Z,85.65
2022-11-15T16:59:38.129Z,85.41
2022-11-15T17:02:15.353Z,85.53
2022-11-15T17:04:47.900Z,85.26
2022-11-15T17:07:20.148Z,85.33
2022-11-15T17:09:55.118Z,85.51
2022-11-15T17:12:27.407Z,85.36
2022-11-15T17:14:59.567Z,85.36
2022-11-15T17:17:31.768Z,85.47
2022-11-15T17:20:05.145Z,85.33
2022-11-15T17:22:38.908Z,85.25
2022-11-15T17:25:12.364Z,85.30
2022-11-15T17:27:46.264Z,85.36
2022-11-15T17:30:20.477Z,85.53
2022-11-15T17:32:52.595Z,85.49
2022-11-15T17:35:24.697Z,85.20
2022-11-15T17:37:56.812Z,85.14
2022-11-15T17:40:28.969Z,85.25
2022-11-15T17:43:01.165Z,85.32
2022-11-15T17:45:33.397Z,85.29
2022-11-15T17:48:05.704Z,85.04
2022-11-15T17:50:38.177Z,84.90
2022-11-15T17:53:10.919Z,84.93
2022-11-15T17:55:43.259Z,84.91
2022-11-15T17:58:18.859Z,84.93
2022-11-15T18:00:51.523Z,84.94
2022-11-15T18:03:24.165Z,85.01
2022-11-15T18:05:56.426Z,85.03
2022-11-15T18:08:29.156Z,85.01
2022-11-15T18:11:11.253Z,85.16
2022-11-15T18:13:50.943Z,85.01
2022-11-15T18:16:27.402Z,84.98
2022-11-15T18:19:00.584Z,85.13
2022-11-15T18:21:34.807Z,85.11
2022-11-15T18:24:07.912Z,85.33
2022-11-15T18:26:39.978Z,85.11
2022-11-15T18:29:12.605Z,85.15
2022-11-15T18:31:47.669Z,84.78
2022-11-15T18:34:20.297Z,85.15
2022-11-15T18:36:54.448Z,84.98
2022-11-15T18:39:26.593Z,85.03
2022-11-15T18:41:58.737Z,84.98
2022-11-15T18:44:35.445Z,84.97
2022-11-15T18:47:12.119Z,84.97
2022-11-15T18:49:44.231Z,84.76
2022-11-15T18:52:16.431Z,84.72
2022-11-15T18:54:48.573Z,84.74
2022-11-15T18:57:20.824Z,85.01
2022-11-15T18:59:52.925Z,85.27
2022-11-15T19:02:24.998Z,85.30
2022-11-15T19:04:57.329Z,85.26
2022-11-15T19:07:29.602Z,85.12
2022-11-15T19:10:01.975Z,85.29
2022-11-15T19:12:34.376Z,85.24
2022-11-15T19:15:10.252Z,85.46
2022-11-15T19:17:42.763Z,85.74
2022-11-15T19:20:15.191Z,85.53
2022-11-15T19:22:50.989Z,85.37
2022-11-15T19:25:28.794Z,85.39
2022-11-15T19:28:00.980Z,85.28
2022-11-15T19:30:37.167Z,85.43
2022-11-15T19:33:09.712Z,85.52
2022-11-15T19:35:45.450Z,85.58
2022-11-15T19:38:17.929Z,85.84
2022-11-15T19:43:36.362Z,85.37
2022-11-15T19:46:11.679Z,85.39
2022-11-15T19:48:44.624Z,85.19
2022-11-15T19:51:19.784Z,85.07
2022-11-15T19:54:02.434Z,85.00
2022-11-15T19:56:35.932Z,85.09
2022-11-15T19:59:08.305Z,84.80
2022-11-15T20:01:40.808Z,84.89
2022-11-15T20:04:34.776Z,84.97
2022-11-15T20:07:07.018Z,85.16
2022-11-15T20:09:39.675Z,84.97
2022-11-15T20:12:12.205Z,85.11
2022-11-15T20:14:46.017Z,84.78
2022-11-15T20:17:19.189Z,84.69
2022-11-15T20:19:52.365Z,84.91
2022-11-15T20:22:24.773Z,85.01
2022-11-15T20:24:57.206Z,85.46
2022-11-15T20:27:54.873Z,85.34
2022-11-15T20:30:27.277Z,85.07
2022-11-15T20:32:59.727Z,85.20
2022-11-15T20:35:47.192Z,85.12
2022-11-15T20:38:20.585Z,85.29
2022-11-15T20:40:57.565Z,85.12
2022-11-15T20:43:32.206Z,85.33
2022-11-15T20:46:04.398Z,85.07
2022-11-15T20:48:36.767Z,85.09
2022-11-15T20:51:12.473Z,85.37
2022-11-15T20:53:45.794Z,85.20
2022-11-15T20:56:19.489Z,85.26
2022-11-15T20:58:53.468Z,85.31
2022-11-15T21:01:26.045Z,85.05
2022-11-15T21:04:00.553Z,85.22
2022-11-15T21:06:36.266Z,85.17
2022-11-15T21:09:26.104Z,84.58
2022-11-15T21:12:13.711Z,84.22
2022-11-15T21:14:48.260Z,84.27
2022-11-15T21:17:21.597Z,84.28
2022-11-15T21:19:53.972Z,84.31
2022-11-15T21:22:28.489Z,84.45
2022-11-15T21:25:30.033Z,84.11
2022-11-15T21:28:10.141Z,84.48
2022-11-15T21:30:42.569Z,84.54
2022-11-15T21:33:14.917Z,84.44
2022-11-15T21:35:49.185Z,84.51
2022-11-15T21:38:23.505Z,84.52
2022-11-15T21:41:05.244Z,84.54
2022-11-15T21:43:37.368Z,84.43
2022-11-15T21:46:10.545Z,84.61
2022-11-15T21:48:42.685Z,84.64
2022-11-15T21:51:19.011Z,84.60
2022-11-15T21:53:51.463Z,84.81
2022-11-15T21:56:23.660Z,85.05
2022-11-15T21:58:56.379Z,84.93
2022-11-15T22:01:47.413Z,84.86
2022-11-15T22:04:21.592Z,85.14
2022-11-15T22:06:54.183Z,85.04
2022-11-15T22:09:26.372Z,85.33
2022-11-15T22:12:09.019Z,85.35
2022-11-15T22:14:41.244Z,85.24
2022-11-15T22:17:15.837Z,85.09
2022-11-15T22:19:52.829Z,85.16
2022-11-15T22:22:25.625Z,85.48
2022-11-15T22:24:58.291Z,85.55
2022-11-15T22:27:30.549Z,85.63
2022-11-15T22:30:02.738Z,85.60
2022-11-15T22:32:34.924Z,85.72
2022-11-15T22:35:07.785Z,85.54
2022-11-15T22:37:39.998Z,85.47
2022-11-15T22:40:13.557Z,85.33
2022-11-15T22:42:45.747Z,85.69
2022-11-15T22:45:18.416Z,85.67
2022-11-15T22:47:50.719Z,85.90
2022-11-15T22:50:23.240Z,85.71
2022-11-15T22:52:55.580Z,85.83
2022-11-15T22:55:27.747Z,85.93
2022-11-15T22:57:59.945Z,85.95
2022-11-15T23:00:34.361Z,85.81
2022-11-15T23:03:06.864Z,85.79
2022-11-15T23:05:47.135Z,85.48
2022-11-15T23:08:20.309Z,85.65
2022-11-15T23:11:10.200Z,85.48
2022-11-15T23:13:42.464Z,85.49
2022-11-15T23:16:23.912Z,85.18
2022-11-15T23:19:00.561Z,85.31
2022-11-15T23:21:54.500Z,85.51
2022-11-15T23:24:27.480Z,85.39
2022-11-15T23:27:02.963Z,85.46
2022-11-15T23:29:55.314Z,85.48
2022-11-15T23:32:45.062Z,85.39
2022-11-15T23:35:18.006Z,85.16
2022-11-15T23:37:50.222Z,85.18
2022-11-15T23:40:22.343Z,85.16
2022-11-15T23:42:55.352Z,85.08
2022-11-15T23:45:28.060Z,85.18
2022-11-15T23:48:19.248Z,84.90
2022-11-15T23:50:51.771Z,84.98
2022-11-15T23:53:24.035Z,84.94
2022-11-15T23:56:02.683Z,85.11
2022-11-15T23:58:35.348Z,85.14
